createdAt,value
2023-01-11T00:01:50.950Z,33.60
2023-01-11T00:04:19.145Z,33.30
2023-01-11T00:06:48.749Z,33.10
2023-01-11T00:09:17.372Z,33.00
2023-01-11T00:11:45.520Z,32.90
2023-01-11T00:14:14.024Z,32.70
2023-01-11T00:16:42.096Z,32.60
2023-01-11T00:19:10.184Z,32.40
2023-01-11T00:21:38.186Z,32.40
2023-01-11T00:24:08.042Z,32.60
2023-01-11T00:26:36.048Z,33.00
2023-01-11T00:29:04.055Z,33.50
2023-01-11T00:31:32.216Z,33.50
2023-01-11T00:34:00.373Z,33.10
2023-01-11T00:36:28.578Z,33.00
2023-01-11T00:38:56.680Z,32.80
2023-01-11T00:41:43.595Z,32.70
2023-01-11T00:44:29.387Z,32.60
2023-01-11T00:47:15.387Z,32.40
2023-01-11T00:49:43.579Z,32.30
2023-01-11T00:52:11.658Z,32.60
2023-01-11T00:54:40.094Z,33.00
2023-01-11T00:57:09.492Z,33.40
2023-01-11T00:59:39.224Z,33.60
2023-01-11T01:02:07.609Z,33.90
2023-01-11T01:04:35.719Z,34.00
2023-01-11T01:07:03.821Z,34.00
2023-01-11T01:09:31.897Z,33.70
2023-01-11T01:12:00.142Z,33.60
2023-01-11T01:14:29.814Z,33.30
2023-01-11T01:16:59.275Z,33.20
2023-01-11T01:19:28.063Z,33.00
2023-01-11T01:21:56.190Z,32.80
2023-01-11T01:24:24.503Z,32.60
2023-01-11T01:26:52.554Z,32.50
2023-01-11T01:29:20.619Z,33.10
2023-01-11T01:31:50.220Z,33.40
2023-01-11T01:34:18.425Z,33.70
2023-01-11T01:36:46.520Z,34.10
2023-01-11T01:39:14.652Z,33.20
2023-01-11T01:41:42.698Z,33.00
2023-01-11T01:44:46.141Z,32.90
2023-01-11T01:47:15.598Z,32.70
2023-01-11T01:49:43.680Z,32.60
2023-01-11T01:52:11.752Z,32.40
2023-01-11T01:54:41.577Z,32.40
2023-01-11T01:57:11.569Z,32.70
2023-01-11T01:59:39.604Z,33.10
2023-01-11T02:02:07.656Z,33.60
2023-01-11T02:04:38.325Z,33.30
2023-01-11T02:07:07.828Z,33.10
2023-01-11T02:09:38.441Z,32.90
2023-01-11T02:12:07.154Z,32.80
2023-01-11T02:14:35.221Z,32.60
2023-01-11T02:17:03.272Z,32.50
2023-01-11T02:19:46.010Z,32.40
2023-01-11T02:22:51.151Z,32.30
2023-01-11T02:25:45.431Z,32.60
2023-01-11T02:28:15.434Z,33.10
2023-01-11T02:30:49.682Z,33.40
2023-01-11T02:33:20.915Z,33.10
2023-01-11T02:35:53.004Z,33.00
2023-01-11T02:38:23.679Z,32.80
2023-01-11T02:40:53.938Z,32.70
2023-01-11T02:43:42.758Z,32.50
2023-01-11T02:46:12.037Z,32.40
2023-01-11T02:48:42.995Z,32.40
2023-01-11T02:51:13.344Z,32.30
2023-01-11T02:53:44.121Z,32.70
2023-01-11T02:56:13.141Z,33.10
2023-01-11T02:58:44.323Z,33.50
2023-01-11T03:01:12.358Z,33.80
2023-01-11T03:03:40.450Z,33.90
2023-01-11T03:06:09.743Z,34.10
2023-01-11T03:09:10.106Z,33.90
2023-01-11T03:12:11.691Z,33.60
2023-01-11T03:14:46.050Z,33.30
2023-01-11T03:17:18.449Z,33.10
2023-01-11T03:19:48.223Z,33.00
2023-01-11T03:22:18.996Z,32.70
2023-01-11T03:24:47.578Z,32.70
2023-01-11T03:27:20.442Z,32.70
2023-01-11T03:29:52.318Z,33.00
2023-01-11T03:32:27.115Z,33.60
2023-01-11T03:35:01.605Z,33.60
2023-01-11T03:37:32.250Z,33.30
2023-01-11T03:40:04.175Z,33.10
2023-01-11T03:42:32.540Z,33.00
2023-01-11T03:45:02.201Z,32.80
2023-01-11T03:47:30.621Z,32.70
2023-01-11T03:49:59.986Z,32.60
2023-01-11T03:52:30.257Z,32.50
2023-01-11T03:55:01.205Z,32.30
2023-01-11T03:57:30.906Z,32.90
2023-01-11T03:59:58.939Z,33.30
2023-01-11T04:02:29.357Z,33.50
2023-01-11T04:04:57.429Z,33.20
2023-01-11T04:07:25.540Z,33.00
2023-01-11T04:09:53.755Z,33.00
2023-01-11T04:12:21.748Z,32.80
2023-01-11T04:14:49.802Z,32.60
2023-01-11T04:17:17.948Z,32.50
2023-01-11T04:19:47.334Z,32.50
2023-01-11T04:22:15.354Z,32.30
2023-01-11T04:24:43.357Z,32.60
2023-01-11T04:27:11.422Z,33.00
2023-01-11T04:29:39.443Z,33.40
2023-01-11T04:32:07.495Z,33.30
2023-01-11T04:34:35.522Z,33.00
2023-01-11T04:37:04.955Z,32.80
2023-01-11T04:39:33.070Z,32.70
2023-01-11T04:42:14.954Z,32.60
2023-01-11T04:44:42.992Z,32.50
2023-01-11T04:47:11.037Z,32.30
2023-01-11T04:49:39.045Z,32.30
2023-01-11T04:52:08.455Z,32.50
2023-01-11T04:54:36.473Z,32.80
2023-01-11T04:57:04.447Z,33.30
2023-01-11T04:59:32.478Z,33.60
2023-01-11T05:02:00.544Z,33.80
2023-01-11T05:04:28.759Z,34.00
2023-01-11T05:06:58.223Z,34.00
2023-01-11T05:09:27.659Z,33.70
2023-01-11T05:11:55.772Z,33.60
2023-01-11T05:14:24.052Z,33.30
2023-01-11T05:16:52.137Z,33.20
2023-01-11T05:19:20.141Z,32.90
2023-01-11T05:21:48.136Z,32.80
2023-01-11T05:24:17.134Z,32.70
2023-01-11T05:26:48.464Z,32.60
2023-01-11T05:29:17.153Z,33.00
2023-01-11T05:31:45.195Z,33.30
2023-01-11T05:34:13.509Z,33.70
2023-01-11T05:36:41.549Z,33.50
2023-01-11T05:39:09.633Z,33.20
2023-01-11T05:41:37.721Z,33.00
2023-01-11T05:44:24.622Z,32.80
2023-01-11T05:46:52.654Z,32.70
2023-01-11T05:49:20.684Z,32.60
2023-01-11T05:51:48.708Z,32.50
2023-01-11T05:54:16.831Z,32.40
2023-01-11T05:56:44.845Z,32.70
2023-01-11T05:59:14.298Z,33.00
2023-01-11T06:01:42.373Z,33.50
2023-01-11T06:04:10.404Z,33.40
2023-01-11T06:06:38.878Z,33.10
2023-01-11T06:09:06.944Z,32.90
2023-01-11T06:11:34.978Z,32.80
2023-01-11T06:14:03.047Z,32.70
2023-01-11T06:16:32.543Z,32.60
2023-01-11T06:19:00.608Z,32.50
2023-01-11T06:21:28.779Z,32.30
2023-01-11T06:23:57.121Z,32.40
2023-01-11T06:26:25.306Z,32.70
2023-01-11T06:28:53.327Z,33.10
2023-01-11T06:31:21.501Z,33.40
2023-01-11T06:33:50.963Z,33.10
2023-01-11T06:36:19.009Z,32.90
2023-01-11T06:38:47.049Z,32.80
2023-01-11T06:41:15.901Z,32.60
2023-01-11T06:43:43.945Z,32.60
2023-01-11T06:46:13.215Z,32.50
2023-01-11T06:48:41.316Z,32.30
2023-01-11T06:51:12.163Z,32.20
2023-01-11T06:53:40.614Z,32.70
2023-01-11T06:56:09.221Z,33.00
2023-01-11T06:58:37.798Z,33.40
2023-01-11T07:01:06.351Z,33.60
2023-01-11T07:03:34.586Z,34.50
2023-01-11T07:06:02.726Z,34.00
2023-01-11T07:08:32.158Z,33.90
2023-01-11T07:11:00.230Z,33.60
2023-01-11T07:13:28.288Z,33.30
2023-01-11T07:15:58.086Z,33.20
2023-01-11T07:18:26.210Z,33.60
2023-01-11T07:20:54.373Z,32.90
2023-01-11T07:23:22.406Z,32.70
2023-01-11T07:25:51.839Z,32.50
2023-01-11T07:28:19.927Z,32.70
2023-01-11T07:30:58.192Z,33.10
2023-01-11T07:33:26.636Z,33.40
2023-01-11T07:35:54.803Z,33.60
2023-01-11T07:38:22.846Z,33.20
2023-01-11T07:40:52.300Z,33.10
2023-01-11T07:43:21.496Z,32.90
2023-01-11T07:45:50.691Z,32.80
2023-01-11T07:48:21.032Z,32.60
2023-01-11T07:50:49.336Z,32.50
2023-01-11T07:53:18.991Z,32.50
2023-01-11T07:55:47.328Z,32.50
2023-01-11T07:58:17.046Z,32.80
2023-01-11T08:00:46.130Z,33.30
2023-01-11T08:03:14.401Z,33.50
2023-01-11T08:05:42.508Z,33.20
2023-01-11T08:08:10.564Z,33.00
2023-01-11T08:10:41.185Z,32.80
2023-01-11T08:13:28.690Z,32.70
2023-01-11T08:15:58.570Z,32.50
2023-01-11T08:18:26.656Z,32.50
2023-01-11T08:20:54.686Z,32.30
2023-01-11T08:23:22.717Z,32.30
2023-01-11T08:25:50.790Z,32.70
2023-01-11T08:28:18.852Z,33.10
2023-01-11T08:30:46.901Z,33.40
2023-01-11T08:33:16.359Z,33.20
2023-01-11T08:35:44.843Z,32.90
2023-01-11T08:38:12.868Z,32.80
2023-01-11T08:40:41.094Z,32.60
2023-01-11T08:43:09.107Z,32.50
2023-01-11T08:45:37.124Z,32.40
2023-01-11T08:48:05.474Z,32.30
2023-01-11T08:50:34.902Z,32.30
2023-01-11T08:53:02.965Z,32.50
2023-01-11T08:55:31.059Z,32.80
2023-01-11T08:57:59.094Z,33.30
2023-01-11T09:00:27.407Z,33.50
2023-01-11T09:02:55.550Z,33.70
2023-01-11T09:05:24.802Z,33.90
2023-01-11T09:07:55.273Z,33.90
2023-01-11T09:10:26.889Z,33.60
2023-01-11T09:12:54.969Z,33.50
2023-01-11T09:15:23.027Z,33.20
2023-01-11T09:17:51.056Z,33.00
2023-01-11T09:20:19.604Z,32.80
2023-01-11T09:22:48.083Z,32.60
2023-01-11T09:25:18.305Z,32.60
2023-01-11T09:27:46.410Z,32.60
2023-01-11T09:30:16.439Z,32.90
2023-01-11T09:32:44.776Z,33.20
2023-01-11T09:35:14.287Z,33.50
2023-01-11T09:37:45.914Z,33.20
2023-01-11T09:40:15.606Z,33.10
2023-01-11T09:42:47.193Z,32.90
2023-01-11T09:45:15.893Z,32.70
2023-01-11T09:47:46.384Z,32.60
2023-01-11T09:50:18.676Z,32.50
2023-01-11T09:52:47.552Z,32.40
2023-01-11T09:55:20.056Z,32.30
2023-01-11T09:58:02.908Z,32.60
2023-01-11T10:00:34.787Z,33.00
2023-01-11T10:03:29.324Z,33.20
2023-01-11T10:06:03.194Z,33.20
2023-01-11T10:18:25.529Z,32.60
2023-01-11T10:18:29.329Z,32.50
2023-01-11T10:20:20.811Z,32.30
2023-01-11T10:22:49.015Z,32.20
2023-01-11T10:25:21.821Z,32.50
2023-01-11T10:27:54.362Z,32.70
2023-01-11T10:30:41.837Z,33.20
2023-01-11T10:33:30.028Z,33.20
2023-01-11T10:36:30.732Z,32.90
2023-01-11T10:39:15.768Z,32.70
2023-01-11T10:41:52.390Z,32.60
2023-01-11T10:44:24.479Z,32.50
2023-01-11T10:46:54.757Z,32.30
2023-01-11T10:49:30.315Z,32.20
2023-01-11T10:52:00.191Z,32.30
2023-01-11T10:54:31.893Z,32.50
2023-01-11T10:57:04.664Z,32.80
2023-01-11T11:00:01.150Z,33.00
2023-01-11T11:02:41.403Z,33.50
2023-01-11T11:05:16.109Z,33.70
2023-01-11T11:07:46.866Z,34.00
2023-01-11T11:10:19.114Z,33.60
2023-01-11T11:12:51.205Z,33.40
2023-01-11T11:15:21.850Z,33.20
2023-01-11T11:17:52.124Z,33.00
2023-01-11T11:20:20.620Z,33.50
2023-01-11T11:22:50.274Z,32.70
2023-01-11T11:25:19.660Z,32.50
2023-01-11T11:27:48.894Z,32.60
2023-01-11T11:30:27.149Z,32.90
2023-01-11T11:32:58.939Z,33.20
2023-01-11T11:35:34.493Z,33.50
2023-01-11T11:38:02.604Z,33.20
2023-01-11T11:40:33.080Z,33.10
2023-01-11T11:43:20.497Z,32.90
2023-01-11T11:45:52.846Z,32.60
2023-01-11T11:48:22.461Z,32.50
2023-01-11T11:50:50.658Z,32.50
2023-01-11T11:53:32.170Z,32.30
2023-01-11T11:56:00.247Z,32.30
2023-01-11T11:58:28.345Z,32.70
2023-01-11T12:00:56.447Z,33.00
2023-01-11T12:03:30.188Z,33.20
2023-01-11T12:06:00.281Z,33.10
2023-01-11T12:08:28.460Z,32.90
2023-01-11T12:10:58.494Z,32.70
2023-01-11T12:13:36.354Z,32.60
2023-01-11T12:16:05.931Z,32.60
2023-01-11T12:18:42.541Z,32.50
2023-01-11T12:21:17.237Z,32.30
2023-01-11T12:23:45.316Z,32.20
2023-01-11T12:26:17.910Z,32.50
2023-01-11T12:29:23.319Z,32.80
2023-01-11T12:31:58.296Z,33.00
2023-01-11T12:34:36.843Z,33.00
2023-01-11T12:37:08.851Z,32.80
2023-01-11T12:39:39.814Z,32.60
2023-01-11T12:42:28.808Z,32.50
2023-01-11T12:45:03.130Z,32.50
2023-01-11T12:48:00.936Z,32.30
2023-01-11T12:50:31.810Z,32.20
2023-01-11T12:53:17.225Z,32.40
2023-01-11T12:55:52.036Z,32.60
2023-01-11T12:58:21.899Z,33.00
2023-01-11T13:00:59.950Z,33.10
2023-01-11T13:03:45.915Z,33.30
2023-01-11T13:06:16.179Z,33.90
2023-01-11T13:08:53.183Z,34.00
2023-01-11T13:11:36.090Z,33.50
2023-01-11T13:14:43.641Z,33.30
2023-01-11T13:17:19.519Z,33.00
2023-01-11T13:19:51.150Z,32.80
2023-01-11T13:22:21.916Z,32.60
2023-01-11T13:24:51.470Z,32.60
2023-01-11T13:27:22.406Z,32.50
2023-01-11T13:29:52.057Z,32.80
2023-01-11T13:32:21.372Z,33.00
2023-01-11T13:34:50.967Z,33.30
2023-01-11T13:37:22.681Z,33.90
2023-01-11T13:39:53.127Z,33.00
2023-01-11T13:42:22.870Z,33.00
2023-01-11T13:44:52.486Z,32.70
2023-01-11T13:47:21.867Z,32.60
2023-01-11T13:49:54.497Z,32.50
2023-01-11T13:52:27.177Z,32.40
2023-01-11T13:54:58.374Z,32.30
2023-01-11T13:57:31.471Z,32.60
2023-01-11T14:00:03.156Z,32.80
2023-01-11T14:02:38.055Z,32.90
2023-01-11T14:05:10.205Z,33.30
2023-01-11T14:07:44.178Z,32.90
2023-01-11T14:10:36.662Z,32.70
2023-01-11T14:13:12.160Z,32.60
2023-01-11T14:15:41.883Z,32.50
2023-01-11T14:18:16.217Z,32.40
2023-01-11T14:20:47.343Z,32.30
2023-01-11T14:23:17.894Z,32.20
2023-01-11T14:25:55.289Z,32.60
2023-01-11T14:28:44.385Z,32.70
2023-01-11T14:31:25.848Z,33.00
2023-01-11T14:34:04.729Z,33.00
2023-01-11T14:36:44.778Z,32.90
2023-01-11T14:39:24.810Z,33.40
2023-01-11T14:42:16.298Z,32.60
2023-01-11T14:45:13.362Z,32.40
2023-01-11T14:48:08.435Z,32.30
2023-01-11T14:50:43.944Z,32.10
2023-01-11T14:53:13.270Z,32.30
2023-01-11T14:55:46.501Z,32.60
2023-01-11T14:58:19.580Z,32.90
2023-01-11T15:01:06.636Z,33.00
2023-01-11T15:03:43.245Z,33.40
2023-01-11T15:06:14.774Z,33.70
2023-01-11T15:08:44.600Z,33.90
2023-01-11T15:11:34.721Z,33.50
2023-01-11T15:14:07.140Z,33.30
2023-01-11T15:16:53.302Z,33.00
2023-01-11T15:19:26.895Z,33.00
2023-01-11T15:21:55.901Z,32.70
2023-01-11T15:24:26.906Z,32.60
2023-01-11T15:26:56.595Z,32.50
2023-01-11T15:29:25.585Z,32.70
2023-01-11T15:32:08.215Z,33.00
2023-01-11T15:34:43.511Z,33.30
2023-01-11T15:37:35.405Z,33.40
2023-01-11T15:40:05.231Z,33.10
2023-01-11T15:43:09.228Z,32.90
2023-01-11T15:46:43.211Z,32.70
2023-01-11T15:49:49.859Z,32.60
2023-01-11T15:53:14.622Z,32.40
2023-01-11T15:56:14.612Z,32.30
2023-01-11T15:59:11.760Z,32.60
2023-01-11T16:01:52.597Z,32.90
2023-01-11T16:04:25.051Z,33.30
2023-01-11T16:06:55.448Z,33.00
2023-01-11T16:09:29.204Z,32.90
2023-01-11T16:12:06.519Z,32.80
2023-01-11T16:14:54.646Z,32.60
2023-01-11T16:17:24.795Z,32.50
2023-01-11T16:19:56.719Z,32.30
2023-01-11T16:22:26.503Z,32.20
2023-01-11T16:24:56.524Z,32.40
2023-01-11T16:27:26.994Z,32.60
2023-01-11T16:29:55.050Z,33.00
2023-01-11T16:32:26.980Z,33.30
2023-01-11T16:34:55.773Z,32.90
2023-01-11T16:37:28.722Z,32.80
2023-01-11T16:40:09.280Z,32.70
2023-01-11T16:42:40.839Z,32.60
2023-01-11T16:45:10.792Z,32.40
2023-01-11T16:47:41.569Z,32.30
2023-01-11T16:50:20.862Z,32.20
2023-01-11T16:52:50.704Z,32.30
2023-01-11T16:55:21.334Z,32.60
2023-01-11T16:57:52.450Z,33.00
2023-01-11T17:00:27.547Z,33.20
2023-01-11T17:03:19.129Z,33.50
2023-01-11T17:06:18.048Z,33.80
2023-01-11T17:08:47.253Z,33.90
2023-01-11T17:11:29.375Z,33.50
2023-01-11T17:14:26.477Z,33.40
2023-01-11T17:16:55.518Z,33.10
2023-01-11T17:19:25.991Z,32.90
2023-01-11T17:21:54.813Z,32.70
2023-01-11T17:24:25.122Z,32.70
2023-01-11T17:26:54.846Z,32.50
2023-01-11T17:29:26.180Z,32.80
2023-01-11T17:31:54.269Z,33.00
2023-01-11T17:34:28.090Z,33.40
2023-01-11T17:36:56.412Z,33.60
2023-01-11T17:39:28.032Z,33.20
2023-01-11T17:42:14.300Z,33.00
2023-01-11T17:45:00.043Z,32.80
2023-01-11T17:47:28.132Z,32.70
2023-01-11T17:49:57.581Z,32.60
2023-01-11T17:52:26.176Z,32.50
2023-01-11T17:55:03.913Z,32.30
2023-01-11T17:57:32.594Z,32.60
2023-01-11T18:00:20.095Z,32.80
2023-01-11T18:02:48.453Z,33.10
2023-01-11T18:05:19.524Z,33.40
2023-01-11T18:07:48.312Z,33.00
2023-01-11T18:10:20.759Z,32.90
2023-01-11T18:12:48.802Z,32.70
2023-01-11T18:15:22.429Z,32.60
2023-01-11T18:17:53.227Z,32.50
2023-01-11T18:20:36.772Z,32.30
2023-01-11T18:23:15.544Z,32.30
2023-01-11T18:25:46.088Z,32.50
2023-01-11T18:28:27.637Z,32.70
2023-01-11T18:30:58.256Z,33.10
2023-01-11T18:33:27.727Z,33.40
2023-01-11T18:35:59.721Z,33.00
2023-01-11T18:38:29.732Z,32.80
2023-01-11T18:40:58.507Z,32.60
2023-01-11T18:43:28.123Z,32.60
2023-01-11T18:45:56.381Z,32.40
2023-01-11T18:48:24.776Z,32.30
2023-01-11T18:50:54.582Z,32.30
2023-01-11T18:53:25.231Z,32.40
2023-01-11T18:55:56.302Z,32.60
2023-01-11T18:58:24.492Z,33.00
2023-01-11T19:00:52.588Z,33.40
2023-01-11T19:03:21.112Z,33.70
2023-01-11T19:05:49.154Z,33.60
2023-01-11T19:08:18.438Z,33.80
2023-01-11T19:10:49.106Z,33.60
2023-01-11T19:13:19.192Z,33.50
2023-01-11T19:15:48.269Z,33.20
2023-01-11T19:18:16.536Z,33.10
2023-01-11T19:20:44.590Z,32.90
2023-01-11T19:23:12.704Z,32.70
2023-01-11T19:25:41.584Z,32.60
2023-01-11T19:28:11.050Z,32.60
2023-01-11T19:30:39.392Z,32.90
2023-01-11T19:33:07.881Z,33.20
2023-01-11T19:35:36.013Z,33.50
2023-01-11T19:38:04.187Z,33.30
2023-01-11T19:40:32.246Z,33.20
2023-01-11T19:43:00.290Z,33.00
2023-01-11T19:45:29.803Z,32.80
2023-01-11T19:47:58.265Z,32.60
2023-01-11T19:50:26.382Z,32.60
2023-01-11T19:52:54.414Z,32.40
2023-01-11T19:55:22.508Z,32.20
2023-01-11T19:57:50.540Z,32.60
2023-01-11T20:00:21.859Z,32.70
2023-01-11T20:02:51.354Z,33.20
2023-01-11T20:05:19.414Z,33.40
2023-01-11T20:07:47.482Z,33.00
2023-01-11T20:10:15.604Z,32.90
2023-01-11T20:12:43.672Z,32.70
2023-01-11T20:15:12.694Z,32.60
2023-01-11T20:17:40.799Z,32.50
2023-01-11T20:20:12.800Z,32.40
2023-01-11T20:22:44.522Z,32.30
2023-01-11T20:25:13.005Z,32.60
2023-01-11T20:27:41.065Z,32.70
2023-01-11T20:30:10.153Z,33.10
2023-01-11T20:32:41.918Z,33.40
2023-01-11T20:35:12.032Z,33.00
2023-01-11T20:37:40.102Z,32.90
2023-01-11T20:40:09.195Z,32.70
2023-01-11T20:42:37.275Z,32.60
2023-01-11T20:45:06.305Z,32.50
2023-01-11T20:47:34.388Z,32.30
2023-01-11T20:50:02.412Z,32.30
2023-01-11T20:52:31.872Z,32.20
2023-01-11T20:54:59.933Z,32.60
2023-01-11T20:57:29.417Z,33.00
2023-01-11T20:59:57.625Z,33.40
2023-01-11T21:02:25.845Z,33.60
2023-01-11T21:04:53.924Z,33.80
2023-01-11T21:07:22.017Z,34.00
2023-01-11T21:09:51.423Z,33.70
2023-01-11T21:12:20.375Z,33.60
2023-01-11T21:14:48.385Z,33.40
2023-01-11T21:17:16.525Z,33.10
2023-01-11T21:19:44.600Z,33.00
2023-01-11T21:22:12.660Z,32.90
2023-01-11T21:24:41.109Z,33.30
2023-01-11T21:27:10.608Z,32.50
2023-01-11T21:29:38.728Z,32.80
2023-01-11T21:32:07.286Z,33.00
2023-01-11T21:34:35.337Z,33.50
2023-01-11T21:37:03.374Z,33.50
2023-01-11T21:39:31.395Z,33.20
2023-01-11T21:41:59.775Z,33.00
2023-01-11T21:44:31.887Z,32.90
2023-01-11T21:47:00.142Z,32.70
2023-01-11T21:49:28.157Z,32.60
2023-01-11T21:51:56.194Z,32.50
2023-01-11T21:54:24.307Z,32.40
2023-01-11T21:56:52.417Z,32.50
2023-01-11T21:59:21.452Z,32.80
2023-01-11T22:01:50.989Z,33.20
2023-01-11T22:04:20.041Z,33.40
2023-01-11T22:06:51.251Z,33.10
2023-01-11T22:09:20.016Z,32.90
2023-01-11T22:11:48.220Z,32.80
2023-01-11T22:14:16.270Z,32.70
2023-01-11T22:16:44.324Z,32.60
2023-01-11T22:19:13.799Z,32.40
2023-01-11T22:21:41.895Z,32.30
2023-01-11T22:24:10.894Z,32.20
2023-01-11T22:26:40.514Z,32.60
2023-01-11T22:29:19.852Z,32.90
2023-01-11T22:31:49.737Z,33.20
2023-01-11T22:34:19.332Z,33.20
2023-01-11T22:36:47.432Z,32.90
2023-01-11T22:39:16.290Z,32.80
2023-01-11T22:41:45.893Z,32.70
2023-01-11T22:44:14.229Z,32.60
2023-01-11T22:46:42.412Z,32.40
2023-01-11T22:49:10.964Z,32.30
2023-01-11T22:51:40.786Z,32.20
2023-01-11T22:54:08.863Z,32.50
2023-01-11T22:56:36.950Z,32.80
2023-01-11T22:59:05.149Z,33.30
2023-01-11T23:01:33.967Z,33.50
2023-01-11T23:04:02.392Z,33.70
2023-01-11T23:06:31.271Z,33.90
2023-01-11T23:09:00.738Z,33.90
2023-01-11T23:11:46.976Z,33.60
2023-01-11T23:14:16.333Z,33.40
2023-01-11T23:16:45.025Z,33.20
2023-01-11T23:19:13.632Z,33.00
2023-01-11T23:21:41.832Z,32.80
2023-01-11T23:24:11.483Z,32.80
2023-01-11T23:26:39.701Z,32.60
2023-01-11T23:29:07.913Z,32.70
2023-01-11T23:31:36.125Z,33.10
2023-01-11T23:34:04.393Z,33.50
2023-01-11T23:36:33.730Z,33.60
2023-01-11T23:39:01.782Z,33.20
2023-01-11T23:41:48.637Z,33.20
2023-01-11T23:44:17.089Z,33.00
2023-01-11T23:47:02.159Z,32.80
2023-01-11T23:49:30.388Z,32.70
2023-01-11T23:51:58.532Z,32.50
2023-01-11T23:54:27.574Z,32.40
2023-01-11T23:56:57.102Z,32.40
2023-01-11T23:59:25.099Z,32.80
